sensor_id;sensor_type;location;lat;lon;timestamp;P1;durP1;ratioP1;P2;durP2;ratioP2
63406;SDS011;49543;45.892;10.838;2022-07-22T15:32:08;11.63;;;6.80;;
63406;SDS011;49543;45.892;10.838;2022-07-22T15:34:34;8.32;;;6.13;;
63406;SDS011;49543;45.892;10.838;2022-07-22T15:36:59;9.10;;;6.43;;
63406;SDS011;49543;45.892;10.838;2022-07-22T15:39:24;6.28;;;5.68;;
63406;SDS011;49543;45.892;10.838;2022-07-22T15:41:50;9.63;;;6.30;;
63406;SDS011;49543;45.892;10.838;2022-07-22T15:44:15;8.98;;;6.20;;
63406;SDS011;49543;45.892;10.838;2022-07-22T15:46:41;10.50;;;6.45;;
63406;SDS011;49543;45.892;10.838;2022-07-22T15:49:06;7.38;;;6.63;;
63406;SDS011;49543;45.892;10.838;2022-07-22T15:51:32;7.28;;;6.57;;
63406;SDS011;49543;45.892;10.838;2022-07-22T15:53:58;7.40;;;6.32;;
63406;SDS011;49543;45.892;10.838;2022-07-22T15:56:23;6.53;;;5.93;;
63406;SDS011;49543;45.892;10.838;2022-07-22T15:58:49;7.85;;;7.22;;
63406;SDS011;49543;45.892;10.838;2022-07-22T16:01:33;9.25;;;6.68;;
63406;SDS011;49543;45.892;10.838;2022-07-22T16:03:58;7.22;;;6.50;;
63406;SDS011;49543;45.892;10.838;2022-07-22T16:06:24;8.15;;;7.35;;
63406;SDS011;49543;45.892;10.838;2022-07-22T16:08:50;7.40;;;6.70;;
63406;SDS011;49543;45.892;10.838;2022-07-22T16:11:15;7.05;;;6.55;;
63406;SDS011;49543;45.892;10.838;2022-07-22T16:13:41;8.95;;;7.25;;
63406;SDS011;49543;45.892;10.838;2022-07-22T16:16:06;11.13;;;7.50;;
63406;SDS011;49543;45.892;10.838;2022-07-22T16:18:32;7.45;;;6.47;;
63406;SDS011;49543;45.892;10.838;2022-07-22T16:20:57;7.03;;;6.30;;
63406;SDS011;49543;45.892;10.838;2022-07-22T16:23:23;7.13;;;6.40;;
63406;SDS011;49543;45.892;10.838;2022-07-22T16:25:48;8.60;;;6.90;;
63406;SDS011;49543;45.892;10.838;2022-07-22T16:28:14;8.07;;;6.95;;
63406;SDS011;49543;45.892;10.838;2022-07-22T16:30:40;7.43;;;6.70;;
63406;SDS011;49543;45.892;10.838;2022-07-22T16:33:06;9.32;;;6.35;;
63406;SDS011;49543;45.892;10.838;2022-07-22T16:35:31;7.80;;;6.40;;
63406;SDS011;49543;45.892;10.838;2022-07-22T16:37:57;8.18;;;6.60;;
63406;SDS011;49543;45.892;10.838;2022-07-22T16:40:22;7.40;;;6.70;;
63406;SDS011;49543;45.892;10.838;2022-07-22T16:42:47;7.60;;;6.65;;
63406;SDS011;49543;45.892;10.838;2022-07-22T16:45:13;9.85;;;7.30;;
63406;SDS011;49543;45.892;10.838;2022-07-22T16:47:38;8.07;;;6.63;;
63406;SDS011;49543;45.892;10.838;2022-07-22T16:50:04;8.65;;;6.65;;
63406;SDS011;49543;45.892;10.838;2022-07-22T16:52:30;7.68;;;6.57;;
63406;SDS011;49543;45.892;10.838;2022-07-22T16:54:56;9.75;;;6.65;;
63406;SDS011;49543;45.892;10.838;2022-07-22T16:57:22;10.80;;;6.95;;
63406;SDS011;49543;45.892;10.838;2022-07-22T16:59:47;7.50;;;6.65;;
63406;SDS011;49543;45.892;10.838;2022-07-22T17:02:13;8.38;;;6.40;;
63406;SDS011;49543;45.892;10.838;2022-07-22T17:04:40;7.45;;;6.75;;
63406;SDS011;49543;45.892;10.838;2022-07-22T17:07:05;8.18;;;6.65;;
63406;SDS011;49543;45.892;10.838;2022-07-22T17:09:31;8.35;;;6.07;;
63406;SDS011;49543;45.892;10.838;2022-07-22T17:11:56;7.82;;;7.03;;
63406;SDS011;49543;45.892;10.838;2022-07-22T17:14:25;6.97;;;6.38;;
63406;SDS011;49543;45.892;10.838;2022-07-22T17:16:51;6.90;;;6.35;;
63406;SDS011;49543;45.892;10.838;2022-07-22T17:19:16;6.75;;;6.07;;
63406;SDS011;49543;45.892;10.838;2022-07-22T17:21:41;6.97;;;6.38;;
63406;SDS011;49543;45.892;10.838;2022-07-22T17:24:07;7.45;;;6.75;;
63406;SDS011;49543;45.892;10.838;2022-07-22T17:26:32;7.57;;;6.65;;
63406;SDS011;49543;45.892;10.838;2022-07-22T17:28:58;7.72;;;7.03;;
63406;SDS011;49543;45.892;10.838;2022-07-22T17:31:23;8.07;;;7.05;;
63406;SDS011;49543;45.892;10.838;2022-07-22T17:33:49;9.18;;;6.78;;
63406;SDS011;49543;45.892;10.838;2022-07-22T17:36:15;8.10;;;6.40;;
63406;SDS011;49543;45.892;10.838;2022-07-22T17:38:41;7.70;;;6.90;;
63406;SDS011;49543;45.892;10.838;2022-07-22T17:41:06;7.80;;;6.97;;
63406;SDS011;49543;45.892;10.838;2022-07-22T17:43:34;7.57;;;6.75;;
63406;SDS011;49543;45.892;10.838;2022-07-22T17:45:59;8.05;;;6.32;;
63406;SDS011;49543;45.892;10.838;2022-07-22T17:48:25;7.05;;;6.22;;
63406;SDS011;49543;45.892;10.838;2022-07-22T17:50:50;6.90;;;6.30;;
63406;SDS011;49543;45.892;10.838;2022-07-22T17:53:16;9.85;;;6.40;;
63406;SDS011;49543;45.892;10.838;2022-07-22T17:55:41;8.48;;;6.25;;
63406;SDS011;49543;45.892;10.838;2022-07-22T17:58:07;6.63;;;6.03;;
63406;SDS011;49543;45.892;10.838;2022-07-22T18:00:32;9.77;;;7.10;;
63406;SDS011;49543;45.892;10.838;2022-07-22T18:02:58;7.32;;;6.63;;
63406;SDS011;49543;45.892;10.838;2022-07-22T18:05:24;7.53;;;6.82;;
63406;SDS011;49543;45.892;10.838;2022-07-22T18:07:50;7.15;;;6.28;;
63406;SDS011;49543;45.892;10.838;2022-07-22T18:10:16;8.30;;;7.05;;
63406;SDS011;49543;45.892;10.838;2022-07-22T18:12:41;7.28;;;6.57;;
63406;SDS011;49543;45.892;10.838;2022-07-22T18:15:07;7.85;;;7.00;;
63406;SDS011;49543;45.892;10.838;2022-07-22T18:17:33;8.98;;;6.40;;
63406;SDS011;49543;45.892;10.838;2022-07-22T18:20:00;9.75;;;7.25;;
63406;SDS011;49543;45.892;10.838;2022-07-22T18:22:29;7.30;;;6.70;;
63406;SDS011;49543;45.892;10.838;2022-07-22T18:24:54;8.65;;;6.57;;
63406;SDS011;49543;45.892;10.838;2022-07-22T18:27:20;7.80;;;6.95;;
63406;SDS011;49543;45.892;10.838;2022-07-22T18:29:46;7.28;;;6.45;;
63406;SDS011;49543;45.892;10.838;2022-07-22T18:32:11;7.95;;;7.15;;
63406;SDS011;49543;45.892;10.838;2022-07-22T18:34:37;7.78;;;6.97;;
63406;SDS011;49543;45.892;10.838;2022-07-22T18:37:02;7.63;;;6.93;;
63406;SDS011;49543;45.892;10.838;2022-07-22T18:39:28;7.72;;;7.03;;
63406;SDS011;49543;45.892;10.838;2022-07-22T18:41:53;7.72;;;7.03;;
63406;SDS011;49543;45.892;10.838;2022-07-22T18:44:19;7.95;;;7.15;;
63406;SDS011;49543;45.892;10.838;2022-07-22T18:46:44;9.93;;;8.85;;
63406;SDS011;49543;45.892;10.838;2022-07-22T18:49:10;9.02;;;8.13;;
63406;SDS011;49543;45.892;10.838;2022-07-22T18:51:35;8.32;;;6.68;;
63406;SDS011;49543;45.892;10.838;2022-07-22T18:54:01;8.25;;;7.55;;
63406;SDS011;49543;45.892;10.838;2022-07-22T18:56:26;7.97;;;7.38;;
63406;SDS011;49543;45.892;10.838;2022-07-22T18:58:52;7.10;;;6.30;;
63406;SDS011;49543;45.892;10.838;2022-07-22T19:01:17;7.32;;;6.65;;
63406;SDS011;49543;45.892;10.838;2022-07-22T19:03:43;7.60;;;6.80;;
63406;SDS011;49543;45.892;10.838;2022-07-22T19:06:08;8.68;;;7.82;;
63406;SDS011;49543;45.892;10.838;2022-07-22T19:08:35;7.90;;;7.18;;
63406;SDS011;49543;45.892;10.838;2022-07-22T19:11:02;7.75;;;7.07;;
63406;SDS011;49543;45.892;10.838;2022-07-22T19:13:28;7.43;;;6.75;;
63406;SDS011;49543;45.892;10.838;2022-07-22T19:15:53;8.00;;;7.25;;
63406;SDS011;49543;45.892;10.838;2022-07-22T19:18:20;7.72;;;6.93;;
63406;SDS011;49543;45.892;10.838;2022-07-22T19:20:48;7.70;;;7.00;;
63406;SDS011;49543;45.892;10.838;2022-07-22T19:25:43;7.35;;;6.75;;
63406;SDS011;49543;45.892;10.838;2022-07-22T19:28:10;7.40;;;6.72;;
63406;SDS011;49543;45.892;10.838;2022-07-22T19:30:36;7.85;;;6.95;;
63406;SDS011;49543;45.892;10.838;2022-07-22T19:33:02;10.43;;;8.02;;
63406;SDS011;49543;45.892;10.838;2022-07-22T19:35:27;8.32;;;7.53;;
63406;SDS011;49543;45.892;10.838;2022-07-22T19:37:53;8.15;;;7.45;;
63406;SDS011;49543;45.892;10.838;2022-07-22T19:40:18;7.70;;;7.10;;
63406;SDS011;49543;45.892;10.838;2022-07-22T19:42:44;8.90;;;8.02;;
63406;SDS011;49543;45.892;10.838;2022-07-22T19:45:09;9.43;;;7.75;;
63406;SDS011;49543;45.892;10.838;2022-07-22T19:47:35;9.10;;;8.20;;
63406;SDS011;49543;45.892;10.838;2022-07-22T19:50:00;9.88;;;8.90;;
63406;SDS011;49543;45.892;10.838;2022-07-22T19:52:26;8.48;;;7.68;;
63406;SDS011;49543;45.892;10.838;2022-07-22T19:54:51;10.45;;;7.20;;
63406;SDS011;49543;45.892;10.838;2022-07-22T19:57:17;7.97;;;6.78;;
63406;SDS011;49543;45.892;10.838;2022-07-22T19:59:42;7.07;;;6.53;;
63406;SDS011;49543;45.892;10.838;2022-07-22T20:02:08;7.72;;;7.03;;
63406;SDS011;49543;45.892;10.838;2022-07-22T20:04:33;8.35;;;7.65;;
63406;SDS011;49543;45.892;10.838;2022-07-22T20:06:58;7.88;;;7.15;;
63406;SDS011;49543;45.892;10.838;2022-07-22T20:09:24;7.78;;;6.97;;
63406;SDS011;49543;45.892;10.838;2022-07-22T20:11:49;7.05;;;6.45;;
63406;SDS011;49543;45.892;10.838;2022-07-22T20:14:15;8.20;;;7.40;;
63406;SDS011;49543;45.892;10.838;2022-07-22T20:16:40;8.18;;;7.32;;
63406;SDS011;49543;45.892;10.838;2022-07-22T20:19:06;8.93;;;7.90;;
63406;SDS011;49543;45.892;10.838;2022-07-22T20:21:31;7.55;;;6.68;;
63406;SDS011;49543;45.892;10.838;2022-07-22T20:23:57;7.25;;;6.55;;
63406;SDS011;49543;45.892;10.838;2022-07-22T20:26:22;8.90;;;6.82;;
63406;SDS011;49543;45.892;10.838;2022-07-22T20:28:48;8.20;;;7.50;;
63406;SDS011;49543;45.892;10.838;2022-07-22T20:31:13;7.82;;;7.05;;
63406;SDS011;49543;45.892;10.838;2022-07-22T20:33:39;8.65;;;7.95;;
63406;SDS011;49543;45.892;10.838;2022-07-22T20:36:04;8.30;;;7.55;;
63406;SDS011;49543;45.892;10.838;2022-07-22T20:38:30;7.55;;;6.75;;
63406;SDS011;49543;45.892;10.838;2022-07-22T20:40:56;7.15;;;6.53;;
63406;SDS011;49543;45.892;10.838;2022-07-22T20:43:21;7.78;;;7.07;;
63406;SDS011;49543;45.892;10.838;2022-07-22T20:45:47;8.32;;;7.47;;
63406;SDS011;49543;45.892;10.838;2022-07-22T20:48:12;8.25;;;6.70;;
63406;SDS011;49543;45.892;10.838;2022-07-22T20:50:38;7.18;;;6.47;;
63406;SDS011;49543;45.892;10.838;2022-07-22T20:53:04;7.93;;;7.22;;
63406;SDS011;49543;45.892;10.838;2022-07-22T20:55:29;8.57;;;7.78;;
63406;SDS011;49543;45.892;10.838;2022-07-22T20:57:55;10.48;;;9.50;;
63406;SDS011;49543;45.892;10.838;2022-07-22T21:00:21;10.82;;;9.75;;
63406;SDS011;49543;45.892;10.838;2022-07-22T21:02:47;10.95;;;9.95;;
63406;SDS011;49543;45.892;10.838;2022-07-22T21:05:13;9.73;;;8.73;;
63406;SDS011;49543;45.892;10.838;2022-07-22T21:07:38;8.20;;;7.45;;
63406;SDS011;49543;45.892;10.838;2022-07-22T21:10:04;8.20;;;7.50;;
63406;SDS011;49543;45.892;10.838;2022-07-22T21:12:30;10.65;;;8.38;;
63406;SDS011;49543;45.892;10.838;2022-07-22T21:14:55;10.07;;;9.07;;
63406;SDS011;49543;45.892;10.838;2022-07-22T21:17:24;11.98;;;10.77;;
63406;SDS011;49543;45.892;10.838;2022-07-22T21:19:50;8.45;;;7.65;;
63406;SDS011;49543;45.892;10.838;2022-07-22T21:22:15;8.15;;;7.32;;
63406;SDS011;49543;45.892;10.838;2022-07-22T21:24:41;8.48;;;6.78;;
63406;SDS011;49543;45.892;10.838;2022-07-22T21:27:08;8.07;;;7.10;;
63406;SDS011;49543;45.892;10.838;2022-07-22T21:29:33;8.88;;;7.97;;
63406;SDS011;49543;45.892;10.838;2022-07-22T21:31:58;8.23;;;7.43;;
63406;SDS011;49543;45.892;10.838;2022-07-22T21:34:24;10.43;;;8.98;;
63406;SDS011;49543;45.892;10.838;2022-07-22T21:36:49;8.65;;;7.75;;
63406;SDS011;49543;45.892;10.838;2022-07-22T21:39:15;7.97;;;7.22;;
63406;SDS011;49543;45.892;10.838;2022-07-22T21:41:40;7.43;;;6.80;;
63406;SDS011;49543;45.892;10.838;2022-07-22T21:44:06;7.18;;;6.47;;
63406;SDS011;49543;45.892;10.838;2022-07-22T21:46:31;7.88;;;6.72;;
63406;SDS011;49543;45.892;10.838;2022-07-22T21:48:56;7.00;;;6.40;;
63406;SDS011;49543;45.892;10.838;2022-07-22T21:51:22;9.93;;;7.50;;
63406;SDS011;49543;45.892;10.838;2022-07-22T21:53:48;7.32;;;6.63;;
63406;SDS011;49543;45.892;10.838;2022-07-22T21:56:13;8.00;;;7.20;;
63406;SDS011;49543;45.892;10.838;2022-07-22T21:58:57;7.38;;;6.68;;
63406;SDS011;49543;45.892;10.838;2022-07-22T22:01:23;7.93;;;7.20;;
63406;SDS011;49543;45.892;10.838;2022-07-22T22:03:49;9.70;;;8.70;;
63406;SDS011;49543;45.892;10.838;2022-07-22T22:06:15;9.90;;;9.00;;
63406;SDS011;49543;45.892;10.838;2022-07-22T22:08:40;8.43;;;7.53;;
